createdAt,value
2022-12-23T00:08:42.086Z,27.73
2022-12-23T00:18:49.097Z,33.17
2022-12-23T00:28:58.858Z,37.63
2022-12-23T00:39:21.840Z,47.13
2022-12-23T00:49:42.126Z,43.80
2022-12-23T00:59:45.518Z,37.40
2022-12-23T01:09:50.084Z,44.57
2022-12-23T01:19:54.391Z,47.33
2022-12-23T01:30:01.837Z,56.30
2022-12-23T01:40:04.340Z,47.53
2022-12-23T01:50:23.601Z,55.33
2022-12-23T02:00:44.302Z,89.03
2022-12-23T02:11:13.113Z,56.00
2022-12-23T02:21:21.670Z,58.77
2022-12-23T02:31:37.143Z,52.80
2022-12-23T02:41:52.462Z,49.27
2022-12-23T02:51:58.162Z,40.27
2022-12-23T03:02:01.271Z,47.40
2022-12-23T03:12:19.888Z,53.27
2022-12-23T03:22:44.125Z,49.60
2022-12-23T03:32:54.262Z,44.03
2022-12-23T03:43:04.724Z,44.80
2022-12-23T03:53:12.373Z,46.43
2022-12-23T04:03:22.940Z,46.17
2022-12-23T04:13:27.447Z,38.50
2022-12-23T04:23:31.932Z,41.67
2022-12-23T04:33:34.019Z,42.23
2022-12-23T04:43:39.023Z,37.00
2022-12-23T04:53:41.179Z,48.70
2022-12-23T05:03:43.366Z,46.63
2022-12-23T05:13:47.660Z,39.53
2022-12-23T05:23:50.027Z,35.13
2022-12-23T05:33:54.596Z,39.10
2022-12-23T05:43:56.767Z,33.20
2022-12-23T05:53:58.923Z,32.87
2022-12-23T06:04:01.005Z,35.20
2022-12-23T06:14:03.126Z,33.93
2022-12-23T06:24:10.407Z,36.83
2022-12-23T06:34:12.434Z,45.13
2022-12-23T06:44:14.536Z,42.43
2022-12-23T06:54:18.644Z,39.60
2022-12-23T07:04:23.468Z,35.70
2022-12-23T07:14:27.958Z,29.03
2022-12-23T07:24:30.167Z,30.60
2022-12-23T07:34:32.342Z,28.80
2022-12-23T07:44:39.566Z,25.50
2022-12-23T07:54:43.910Z,27.90
2022-12-23T08:04:46.729Z,27.07
2022-12-23T08:14:53.949Z,29.73
2022-12-23T08:25:01.223Z,31.77
2022-12-23T08:35:03.523Z,33.90
2022-12-23T08:45:08.135Z,30.83
2022-12-23T08:55:14.930Z,28.70
2022-12-23T09:05:17.151Z,27.17
2022-12-23T09:15:21.781Z,29.63
2022-12-23T09:25:28.712Z,28.97
2022-12-23T09:35:31.436Z,30.53
2022-12-23T09:46:04.199Z,30.97
2022-12-23T09:56:19.735Z,32.27
2022-12-23T10:06:28.001Z,33.37
2022-12-23T10:16:34.772Z,30.80
2022-12-23T10:26:53.100Z,32.70
2022-12-23T10:37:03.062Z,30.17
2022-12-23T10:47:27.322Z,30.77
2022-12-23T10:57:34.306Z,31.93
2022-12-23T11:07:45.472Z,34.10
2022-12-23T11:18:01.727Z,41.50
2022-12-23T11:28:11.426Z,34.93
2022-12-23T11:38:14.216Z,39.50
2022-12-23T11:48:30.297Z,40.37
2022-12-23T11:58:48.801Z,40.20
2022-12-23T12:08:54.712Z,40.47
2022-12-23T12:19:06.695Z,46.97
2022-12-23T12:29:17.258Z,42.17
2022-12-23T12:39:26.435Z,46.83
2022-12-23T12:49:52.074Z,42.73
2022-12-23T13:00:05.623Z,43.63
2022-12-23T13:10:34.704Z,44.23
2022-12-23T13:21:00.274Z,43.77
2022-12-23T13:31:14.225Z,41.30
2022-12-23T13:41:51.644Z,37.70
2022-12-23T13:52:04.418Z,41.20
2022-12-23T14:02:55.904Z,40.23
2022-12-23T14:13:03.648Z,40.97
2022-12-23T14:23:29.963Z,41.60
2022-12-23T14:33:38.403Z,46.90
2022-12-23T14:43:51.341Z,50.27
2022-12-23T14:53:58.844Z,49.57
2022-12-23T15:04:27.918Z,49.90
2022-12-23T15:14:38.356Z,51.30
2022-12-23T15:24:45.908Z,51.37
2022-12-23T15:34:49.292Z,42.10
2022-12-23T15:44:51.814Z,41.27
2022-12-23T15:55:31.095Z,39.63
2022-12-23T16:05:36.087Z,43.57
2022-12-23T16:15:41.538Z,37.47
2022-12-23T16:25:52.892Z,41.20
2022-12-23T16:36:21.583Z,52.83
2022-12-23T16:46:27.143Z,39.17
2022-12-23T16:56:34.701Z,41.93
2022-12-23T17:06:41.144Z,46.83
2022-12-23T17:16:50.106Z,44.27
2022-12-23T17:26:54.092Z,44.03
2022-12-23T17:37:02.039Z,43.73
2022-12-23T17:47:14.631Z,47.67
2022-12-23T17:57:20.036Z,45.90
2022-12-23T18:07:26.843Z,46.27
2022-12-23T18:17:33.231Z,48.70
2022-12-23T18:27:40.012Z,39.70
2022-12-23T18:37:42.371Z,41.83
2022-12-23T18:47:46.825Z,49.90
2022-12-23T18:57:49.608Z,50.10
2022-12-23T19:07:53.460Z,46.27
2022-12-23T19:17:55.695Z,49.17
2022-12-23T19:28:00.108Z,49.30
2022-12-23T19:38:02.276Z,52.23
2022-12-23T19:48:12.271Z,48.57
2022-12-23T19:58:16.893Z,42.83
2022-12-23T20:08:18.976Z,48.03
2022-12-23T20:18:23.426Z,47.93
2022-12-23T20:28:28.453Z,46.83
2022-12-23T20:38:30.518Z,56.63
2022-12-23T20:48:34.590Z,52.80
2022-12-23T20:58:56.514Z,59.73
2022-12-23T21:09:05.969Z,62.90
2022-12-23T21:19:12.273Z,58.10
2022-12-23T21:29:19.043Z,58.60
2022-12-23T21:39:26.142Z,66.20
2022-12-23T21:49:32.221Z,64.73
2022-12-23T21:59:36.809Z,62.63
2022-12-23T22:09:41.088Z,62.27
2022-12-23T22:19:45.501Z,59.10
2022-12-23T22:29:47.824Z,60.97
2022-12-23T22:39:52.704Z,56.87
2022-12-23T22:49:57.522Z,54.03
2022-12-23T23:00:00.745Z,55.70
2022-12-23T23:10:12.288Z,56.67
2022-12-23T23:20:19.849Z,57.23
2022-12-23T23:30:24.486Z,53.60
2022-12-23T23:40:27.317Z,49.97
2022-12-23T23:50:31.637Z,51.63
